• Join FlightAware (Why Join?)
  • Login
  • US Flag 
11:12AM EDT


 

Airport Tracker/Info


-or-


 

Live Flight TrackerFlight Track Log ✈ UAL4788 ✈ 30-Sep-2013 ✈ KFNT - KCLE

Flight Track Log - Related Links

Times and Time Zones

All times are in EDT time to prevent confusion due to time zone crossing. See the UAL4788 flight status page for this flight to view local times or setup timezone preferences in your user account.

Time Position Orientation Groundspeed Altitude Reporting Facility
EDT Latitude Longitude Course Direction KTS MPH feet Rate Location/Type
06:19AM 42.9078 -83.7153 137° Southeast 182 209 4,200  Level Cleveland Center
06:19AM 42.9067 -83.7092 104° East 181 208 4,300 720 Climbing Cleveland Center
06:20AM 42.9097 -83.6333 87° East 204 235 5,000 660 Climbing Cleveland Center
06:20AM 42.9086 -83.6269 103° East 212 244 5,000 900 Level Cleveland Center
06:20AM 42.8875 -83.5756 119° Southeast 218 251 5,700 1,320 Climbing Cleveland Center
06:21AM 42.8794 -83.5561 119° Southeast 217 250 6,300 1,020 Climbing Cleveland Center
06:22AM 42.8519 -83.4961 122° Southeast 204 235 7,000 660 Climbing Cleveland Center
06:22AM 42.8503 -83.4914 116° Southeast 207 238 7,000  Level Cleveland Center
06:23AM 42.6932 -83.4036 161° South  Level Estimated
06:23AM 42.8136 -83.4508 141° Southeast 243 280 7,000  Level Cleveland Center
06:23AM 42.8017 -83.4331 132° Southeast 233 268 7,000  Level Cleveland Center
06:24AM 42.6485 -83.3460 137° Southeast  Level FlightAware Approximate
06:24AM 42.7639 -83.3869 138° Southeast 247 284 7,000  Level Cleveland Center
06:24AM 42.7536 -83.3683 127° Southeast 245 282 7,000  Level Cleveland Center
06:25AM 42.7128 -83.3169 137° Southeast 244 281 7,000  Level Cleveland Center
06:25AM 42.7003 -83.2986 133° Southeast 247 284 7,000  Level Cleveland Center
06:26AM 42.6633 -83.2533 138° Southeast 247 284 7,000  Level Cleveland Center
06:26AM 42.6525 -83.2375 133° Southeast 251 289 7,000  Level Cleveland Center
06:27AM 42.6028 -83.1736 137° Southeast 247 284 7,000  Level Cleveland Center
06:27AM 42.5986 -83.1675 133° Southeast 250 288 7,000  Level Cleveland Center
06:28AM 42.5528 -83.1075 136° Southeast 248 285 7,000  Level Cleveland Center
06:28AM 42.5528 -83.1081 270° West 248 285 7,000  Level Cleveland Center
06:29AM 42.5033 -83.0411 135° Southeast 249 287 7,000  Level Cleveland Center
06:29AM 42.5036 -83.0411 360° North 249 287 7,000  Level Cleveland Center
06:30AM 42.4525 -82.9775 137° Southeast 249 287 7,000  Level Cleveland Center
06:31AM 42.3981 -82.9081 137° Southeast 248 285 7,000  Level Cleveland Center
06:31AM 42.4031 -82.9122 328° Northwest 249 287 7,000  Level Cleveland Center
06:32AM 42.3528 -82.8467 136° Southeast 249 287 7,000  Level Cleveland Center
06:33AM 42.3031 -82.7814 136° Southeast 250 288 7,000  Level Cleveland Center
06:34AM 42.2519 -82.7167 137° Southeast 251 289 7,000  Level Cleveland Center
06:35AM 42.2014 -82.6503 136° Southeast 253 291 7,000  Level Cleveland Center
06:36AM 42.1397 -82.5719 137° Southeast 254 292 7,100  Climbing Cleveland Center
06:37AM 42.0889 -82.5072 137° Southeast 252 290 7,000  Descending Cleveland Center
06:38AM 42.0383 -82.4419 136° Southeast 253 291 7,100 60 Climbing Cleveland Center
06:39AM 42.0106 -82.4114 141° Southeast 251 289 7,100  Level Cleveland Center
06:39AM 41.9878 -82.3775 132° Southeast 251 289 7,100  Level Cleveland Center
06:40AM 41.9600 -82.3461 140° Southeast 247 284 7,100  Level Cleveland Center
06:40AM 41.9381 -82.3136 132° Southeast 249 287 7,100  Level Cleveland Center
06:41AM 41.9078 -82.2781 139° Southeast 249 287 7,100 -120 Level Cleveland Center
06:41AM 41.8878 -82.2503 134° Southeast 248 285 7,000 -120 Descending Cleveland Center
06:42AM 41.8608 -82.2194 140° Southeast 248 285 7,000  Level Cleveland Center
06:42AM 41.8378 -82.1875 134° Southeast 247 284 7,000  Level Cleveland Center
06:43AM 41.8097 -82.1603 144° Southeast 246 283 7,000  Level Cleveland Center
06:43AM 41.7856 -82.1297 137° Southeast 245 282 7,000 60 Level Cleveland Center
06:44AM 41.7544 -82.0978 143° Southeast 235 270 7,100 60 Climbing Cleveland Center
06:44AM 41.7342 -82.0728 137° Southeast 232 267 7,100 -120 Level Cleveland Center
06:45AM 41.6939 -82.0286 141° Southeast 222 255 7,000 -120 Descending Cleveland Center
06:45AM 41.6861 -82.0200 140° Southeast 223 257 7,000  Level Cleveland Center
06:46AM 41.6519 -81.9825 141° Southeast 228 262 7,000 60 Level Cleveland Center
06:46AM 41.6358 -81.9656 142° Southeast 227 261 7,100 60 Climbing Cleveland Center
06:47AM 41.6042 -81.9325 142° Southeast 232 267 7,100 -120 Level Cleveland Center
06:47AM 41.5847 -81.9111 141° Southeast 231 266 7,000 -300 Descending Cleveland Center
06:48AM 41.5617 -81.8697 127° Southeast 250 288 6,800 -540 Descending Cleveland Center
06:48AM 41.5647 -81.8347 83° East 240 276 6,500 -780 Descending Cleveland Center
06:49AM 41.5725 -81.7958 75° East 211 243 6,100 -840 Descending Cleveland Center
06:49AM 41.5789 -81.7581 77° East 216 249 5,700 -960 Descending Cleveland Center
06:50AM 41.5772 -81.7211 93° East 187 215 5,100 -1,020 Descending Cleveland Center
06:50AM 41.5586 -81.7081 152° Southeast 186 214 4,700 -1,380 Descending Cleveland Center
06:51AM 41.5261 -81.7075 179° South 181 208 3,700 -1,560 Descending Cleveland Center
06:51AM 41.4997 -81.7150 192° South 186 214 3,100 -840 Descending Cleveland Center
06:52AM 41.4836 -81.7369 226° Southwest 171 197 2,900 -600 Descending Cleveland Center
06:52AM 41.4692 -81.7606 231° Southwest 174 200 2,500 -780 Descending Cleveland Center
06:53AM 41.4608 -81.7778 237° Southwest 154 177 2,200 -720 Descending Cleveland Center
06:53AM 41.4456 -81.7981 225° Southwest 146 168 1,800 -720 Descending Cleveland Center
06:54AM 41.4386 -81.8133 239° Southwest 109 125 1,500 -600 Descending Cleveland Center
06:54AM 41.4261 -81.8294 224° Southwest 119 137 1,200 -600 Descending Cleveland Center
06:55AM 41.4192 -81.8436 237° Southwest 111 128 900 -420 Descending Cleveland Center
06:55AM 41.4072 -81.8586 223° Southwest 113 130 800 -180 Descending Cleveland Center
06:57AM 41.4000 -81.8500 North  Level FlightAware Approximate